Time;durP1;ratioP1;P1;durP2;ratioP2;P2;SDS_P1;SDS_P2;PMS_P1;PMS_P2;Temp;Humidity;BMP_temperature;BMP_pressure;BME280_temperature;BME280_humidity;BME280_pressure;Samples;Min_cycle;Max_cycle;Signal;HPM_P1;HPM_P2
2022/03/12 00:01:39;;;;;;;16.50;9.05;;;;;;;8.61;44.37;101175.28;4917570;29;20092;-94
2022/03/12 00:04:41;;;;;;;18.50;9.47;;;;;;;8.64;44.56;101172.94;4915078;29;20040;-93
2022/03/12 00:07:19;;;;;;;19.03;9.50;;;;;;;8.68;44.64;101175.94;4927087;29;20372;-93
2022/03/12 00:09:47;;;;;;;16.77;8.90;;;;;;;8.61;44.67;101168.06;4933086;29;20043;-94
2022/03/12 00:12:34;;;;;;;17.52;8.85;;;;;;;8.72;44.54;101176.31;4930602;29;20035;-94
2022/03/12 00:15:14;;;;;;;16.55;9.30;;;;;;;8.60;44.68;101173.66;4930530;29;20068;-92
2022/03/12 00:18:01;;;;;;;21.08;10.63;;;;;;;8.59;44.80;101167.47;4913495;29;20047;-92
2022/03/12 00:20:32;;;;;;;16.95;9.00;;;;;;;8.68;44.67;101181.28;4917312;28;20047;-93
2022/03/12 00:23:11;;;;;;;15.50;8.40;;;;;;;8.59;44.79;101178.16;4995397;28;20132;-92
2022/03/12 00:25:49;;;;;;;16.05;9.48;;;;;;;8.60;45.08;101177.13;4989744;28;20035;-93
2022/03/12 00:28:20;;;;;;;18.77;11.43;;;;;;;8.66;44.74;101186.09;4999308;28;20027;-91
2022/03/12 00:31:18;;;;;;;16.80;9.23;;;;;;;8.59;45.21;101177.38;5006244;28;20030;-92
2022/03/12 00:33:46;;;;;;;21.77;10.67;;;;;;;8.59;45.37;101188.84;5011791;28;20768;-92
2022/03/12 00:36:35;;;;;;;22.30;9.02;;;;;;;8.69;45.24;101190.94;5012480;28;20049;-92
2022/03/12 00:39:08;;;;;;;20.17;9.77;;;;;;;8.60;45.31;101195.03;5000841;28;20589;-94
2022/03/12 00:41:49;;;;;;;18.98;9.65;;;;;;;8.70;45.67;101210.47;5011466;28;20026;-93
2022/03/12 00:44:21;;;;;;;19.13;10.60;;;;;;;8.59;45.54;101186.19;5012581;28;20021;-92
2022/03/12 00:46:47;;;;;;;17.40;10.65;;;;;;;8.61;45.71;101197.44;4995647;28;20069;-94
2022/03/12 00:49:12;;;;;;;18.95;9.73;;;;;;;8.59;46.58;101199.53;4979853;28;20381;-93
2022/03/12 00:51:41;;;;;;;17.27;9.83;;;;;;;8.57;47.14;101193.66;4995144;28;20034;-92
2022/03/12 00:54:13;;;;;;;18.60;9.65;;;;;;;8.54;47.44;101199.44;5018210;28;20030;-94
2022/03/12 00:56:40;;;;;;;20.45;10.95;;;;;;;8.54;47.31;101196.78;5016029;28;20453;-92
2022/03/12 00:59:09;;;;;;;17.88;9.40;;;;;;;8.56;47.35;101205.38;5015126;28;20034;-92
2022/03/12 01:01:43;;;;;;;19.58;9.10;;;;;;;8.50;47.66;101187.59;5016213;28;20025;-93
2022/03/12 01:04:14;;;;;;;19.30;9.17;;;;;;;8.52;47.80;101198.88;5042427;23;20034;-93
2022/03/12 01:07:24;;;;;;;17.50;9.40;;;;;;;8.46;48.06;101203.25;5018787;28;20312;-92
2022/03/12 01:09:50;;;;;;;16.58;9.70;;;;;;;8.58;48.18;101219.28;5014315;28;20463;-94
2022/03/12 01:12:27;;;;;;;16.43;10.50;;;;;;;8.50;48.31;101195.63;5013435;28;20037;-93
2022/03/12 01:18:02;;;;;;;19.40;11.13;;;;;;;8.54;48.72;101207.47;4994331;28;20041;-93
2022/03/12 01:20:40;;;;;;;16.05;9.20;;;;;;;8.61;48.67;101213.47;5000887;28;20082;-94
2022/03/12 01:23:31;;;;;;;20.23;9.32;;;;;;;8.59;48.42;101220.91;4993194;28;20027;-92
2022/03/12 01:25:56;;;;;;;24.05;10.40;;;;;;;8.57;49.45;101208.84;4975062;28;20519;-94
2022/03/12 01:28:22;;;;;;;18.27;10.07;;;;;;;8.52;49.96;101206.06;4993040;28;20110;-94
2022/03/12 01:30:48;;;;;;;21.17;10.40;;;;;;;8.54;50.87;101218.16;4992529;28;20433;-93
2022/03/12 01:33:25;;;;;;;21.10;10.50;;;;;;;8.50;51.88;101208.97;4997029;28;20022;-93
2022/03/12 01:36:00;;;;;;;19.90;10.40;;;;;;;8.52;53.08;101228.25;5008044;28;20026;-91
2022/03/12 01:39:01;;;;;;;19.63;10.40;;;;;;;8.43;52.76;101219.75;5003980;28;20043;-92
2022/03/12 01:41:43;;;;;;;18.17;10.45;;;;;;;8.42;53.23;101222.66;4998033;28;20065;-93
2022/03/12 01:44:09;;;;;;;19.33;10.15;;;;;;;8.46;53.54;101234.50;4994971;28;20034;-92
2022/03/12 01:50:08;;;;;;;20.43;10.17;;;;;;;8.38;53.89;101224.97;5004426;28;20053;-92
2022/03/12 01:52:46;;;;;;;17.75;9.50;;;;;;;8.36;54.53;101237.75;5003378;28;20405;-93
2022/03/12 01:55:11;;;;;;;20.73;10.57;;;;;;;8.26;54.91;101230.31;4992392;28;20049;-93
2022/03/12 01:57:36;;;;;;;18.20;10.75;;;;;;;8.26;55.04;101230.31;4992162;28;20105;-93
2022/03/12 02:00:57;;;;;;;17.20;9.90;;;;;;;8.32;56.03;101248.09;4992287;28;20037;-93
2022/03/12 02:03:29;;;;;;;21.53;9.63;;;;;;;8.20;56.84;101233.94;4988062;28;20392;-94
2022/03/12 02:05:58;;;;;;;17.53;11.17;;;;;;;8.17;57.34;101232.50;4991726;28;20379;-92
2022/03/12 02:08:24;;;;;;;16.85;10.10;;;;;;;8.17;57.38;101243.19;4994931;28;20034;-92
2022/03/12 02:10:50;;;;;;;16.90;9.93;;;;;;;8.09;56.96;101224.88;4994460;28;20046;-92
2022/03/12 02:13:18;;;;;;;19.80;10.32;;;;;;;8.07;57.77;101240.28;4997030;28;20061;-94
2022/03/12 02:16:07;;;;;;;17.48;10.10;;;;;;;8.09;57.28;101243.56;4996127;28;20481;-93
2022/03/12 02:18:47;;;;;;;19.60;10.57;;;;;;;8.07;57.13;101231.47;4997167;28;20042;-93
2022/03/12 02:21:12;;;;;;;18.73;9.57;;;;;;;8.11;59.03;101232.63;4998329;28;20022;-93
2022/03/12 02:24:20;;;;;;;16.00;10.20;;;;;;;7.98;58.13;101228.31;5018536;28;20391;-91
2022/03/12 02:26:46;;;;;;;18.17;10.17;;;;;;;8.00;59.04;101243.06;4999598;28;20054;-91
2022/03/12 02:29:22;;;;;;;19.73;11.27;;;;;;;8.01;58.11;101244.72;5018258;28;20269;-93
2022/03/12 02:32:04;;;;;;;19.25;10.18;;;;;;;7.99;58.87;101248.63;5002450;28;20027;-92
2022/03/12 02:34:56;;;;;;;17.38;10.15;;;;;;;7.87;58.25;101224.59;4996338;23;20043;-93
2022/03/12 02:37:45;;;;;;;22.33;10.10;;;;;;;7.87;57.85;101228.09;4956535;28;20104;-93
2022/03/12 02:40:44;;;;;;;18.92;9.55;;;;;;;7.87;57.33;101233.41;4944443;28;20043;-93
2022/03/12 02:46:29;;;;;;;19.30;10.05;;;;;;;7.91;56.96;101235.63;4935119;29;20039;-93
2022/03/12 02:48:57;;;;;;;19.52;10.00;;;;;;;7.98;56.52;101247.84;4933472;29;20047;-92
2022/03/12 02:51:45;;;;;;;19.83;10.30;;;;;;;7.95;56.27;101250.94;4936274;29;20043;-91
2022/03/12 02:54:19;;;;;;;19.07;10.77;;;;;;;8.03;56.18;101247.94;4950835;28;20287;-94
2022/03/12 02:56:51;;;;;;;17.95;10.13;;;;;;;7.96;56.12;101241.91;4958968;28;20024;-92
2022/03/12 02:59:19;;;;;;;19.05;9.85;;;;;;;8.03;56.61;101253.28;4959236;29;20039;-94
2022/03/12 03:01:59;;;;;;;16.70;9.85;;;;;;;7.94;56.22;101246.66;4958373;29;20072;-93
2022/03/12 03:04:37;;;;;;;20.23;10.38;;;;;;;7.99;55.99;101265.47;4941145;29;20071;-92
2022/03/12 03:07:31;;;;;;;20.80;11.00;;;;;;;7.95;55.86;101258.97;4935489;29;20542;-92
2022/03/12 03:09:59;;;;;;;20.10;9.55;;;;;;;7.95;56.06;101260.78;4936158;28;20522;-93
2022/03/12 03:12:28;;;;;;;19.70;10.45;;;;;;;7.88;55.87;101250.22;4957293;28;20031;-92
2022/03/12 03:14:59;;;;;;;18.63;10.25;;;;;;;7.88;56.46;101252.91;5019122;23;20081;-91
2022/03/12 03:17:35;;;;;;;18.47;10.17;;;;;;;7.77;56.32;101248.38;5018717;28;20026;-91
2022/03/12 03:20:09;;;;;;;18.00;10.20;;;;;;;7.71;57.05;101268.75;5015260;28;20343;-91
2022/03/12 03:22:34;;;;;;;18.50;9.70;;;;;;;7.43;57.71;101252.31;5020012;28;20028;-91
2022/03/12 03:25:07;;;;;;;20.40;10.37;;;;;;;7.34;58.19;101268.84;5022401;28;20081;-90
2022/03/12 03:27:39;;;;;;;20.70;10.43;;;;;;;7.17;58.87;101268.66;5032490;28;20030;-91
2022/03/12 03:30:13;;;;;;;18.63;10.13;;;;;;;7.05;59.12;101263.25;5012587;28;20026;-93
2022/03/12 03:32:38;;;;;;;17.20;9.45;;;;;;;6.93;59.88;101260.53;4996133;28;20057;-92
2022/03/12 03:35:19;;;;;;;18.80;9.60;;;;;;;6.82;60.56;101262.91;5000037;23;20061;-94
2022/03/12 03:38:23;;;;;;;;;;;;;;;;;;;;;
2022/03/12 03:41:01;;;;;;;18.65;9.63;;;;;;;6.60;61.34;101269.69;4993210;28;20026;-94
2022/03/12 03:43:38;;;;;;;20.42;9.63;;;;;;;6.59;62.12;101284.03;4991131;28;20034;-94
2022/03/12 03:46:04;;;;;;;19.58;9.85;;;;;;;6.46;63.15;101277.78;4974536;28;20027;-94
2022/03/12 03:49:22;;;;;;;18.45;10.70;;;;;;;6.38;63.96;101277.25;4959592;28;20027;-94
2022/03/12 03:52:04;;;;;;;20.38;9.75;;;;;;;6.35;65.15;101276.66;4893482;29;20072;-93
2022/03/12 03:54:44;;;;;;;17.17;9.63;;;;;;;6.34;65.50;101279.56;4933378;29;20074;-94
2022/03/12 03:57:39;;;;;;;15.57;9.17;;;;;;;6.41;66.32;101292.81;4989303;28;20051;-94
2022/03/12 04:00:05;;;;;;;20.10;9.30;;;;;;;6.33;67.08;101280.59;4988788;28;20648;-93
2022/03/12 04:02:39;;;;;;;21.77;9.73;;;;;;;6.31;67.97;101287.97;5004507;23;20028;-94
2022/03/12 04:05:13;;;;;;;16.38;8.55;;;;;;;6.26;67.38;101290.47;5017649;28;20503;-92
2022/03/12 04:07:48;;;;;;;18.05;9.00;;;;;;;6.22;67.71;101298.88;5023986;28;20051;-92
2022/03/12 04:10:16;;;;;;;19.23;9.88;;;;;;;6.15;68.01;101299.97;5031215;28;20025;-93
2022/03/12 04:12:58;;;;;;;16.42;9.48;;;;;;;6.13;67.26;101299.34;5013181;28;20033;-93
2022/03/12 04:15:24;;;;;;;20.40;9.60;;;;;;;6.13;67.63;101305.50;4996206;28;20026;-93
2022/03/12 04:17:53;;;;;;;18.30;9.80;;;;;;;5.97;67.25;101298.81;5026576;28;20040;-93
2022/03/12 04:20:22;;;;;;;20.40;9.65;;;;;;;5.93;67.59;101304.81;4992472;28;20049;-92
2022/03/12 04:22:50;;;;;;;15.68;9.73;;;;;;;5.92;67.34;101306.66;5014321;28;20026;-93
2022/03/12 04:28:42;;;;;;;19.30;9.55;;;;;;;5.80;67.44;101311.84;4933438;29;20030;-93
2022/03/12 04:31:21;;;;;;;22.65;10.18;;;;;;;5.73;68.22;101301.25;4967840;28;20057;-93
2022/03/12 04:33:59;;;;;;;16.98;9.88;;;;;;;5.80;69.62;101316.34;5013732;28;20225;-93
2022/03/12 04:36:53;;;;;;;17.10;9.73;;;;;;;5.74;69.92;101310.84;5033005;28;20081;-92
2022/03/12 04:39:19;;;;;;;20.10;9.13;;;;;;;5.67;70.17;101314.56;5032877;28;20575;-93
2022/03/12 04:41:44;;;;;;;18.30;8.93;;;;;;;5.61;71.94;101314.41;5016587;28;20754;-93
2022/03/12 04:44:09;;;;;;;19.17;8.93;;;;;;;5.52;72.04;101305.03;5012363;28;20034;-93
2022/03/12 04:46:35;;;;;;;19.15;9.55;;;;;;;5.58;72.64;101317.47;5013614;28;20078;-93
2022/03/12 04:49:02;;;;;;;14.80;8.55;;;;;;;5.56;72.53;101324.03;5013977;28;20099;-93
2022/03/12 04:54:17;;;;;;;19.50;9.25;;;;;;;5.38;73.88;101308.78;5001849;28;20537;-94
2022/03/12 04:56:46;;;;;;;16.17;9.55;;;;;;;5.40;74.70;101309.38;4994552;28;20026;-93
2022/03/12 04:59:17;;;;;;;19.25;9.32;;;;;;;5.40;73.83;101320.00;5007343;28;20374;-92
2022/03/12 05:01:45;;;;;;;16.25;8.77;;;;;;;5.43;74.00;101325.72;5032268;28;20380;-91
2022/03/12 05:04:42;;;;;;;18.05;9.40;;;;;;;5.34;74.22;101323.50;5031975;28;20032;-93
2022/03/12 05:07:14;;;;;;;18.35;9.27;;;;;;;5.36;73.91;101326.78;5025897;28;20068;-93
2022/03/12 05:09:40;;;;;;;16.27;8.50;;;;;;;5.31;74.24;101341.50;5028139;28;20060;-91
2022/03/12 05:12:28;;;;;;;16.17;9.87;;;;;;;5.33;74.54;101343.13;5029819;28;20389;-91
2022/03/12 05:14:58;;;;;;;17.65;10.20;;;;;;;5.21;75.17;101330.50;5024778;28;20029;-91
2022/03/12 05:17:39;;;;;;;15.32;8.88;;;;;;;5.20;75.82;101326.22;5029548;28;20033;-92
2022/03/12 05:20:27;;;;;;;18.75;9.32;;;;;;;5.22;76.00;101328.66;5012234;28;20045;-91
2022/03/12 05:25:19;;;;;;;20.80;10.23;;;;;;;5.22;77.00;101341.94;4995020;23;20054;-90
2022/03/12 05:27:56;;;;;;;17.92;9.82;;;;;;;5.17;76.59;101342.56;4970843;28;20026;-89
2022/03/12 05:30:22;;;;;;;21.77;9.10;;;;;;;5.14;77.88;101345.63;4973987;28;20081;-90
2022/03/12 05:32:59;;;;;;;18.43;10.33;;;;;;;5.09;78.78;101340.97;4991172;28;20030;-91
2022/03/12 05:35:32;;;;;;;19.48;10.27;;;;;;;5.23;79.78;101354.19;4989654;28;20448;-90
2022/03/12 05:38:06;;;;;;;20.58;10.35;;;;;;;5.20;79.86;101347.47;4974055;28;20116;-90
2022/03/12 05:40:46;;;;;;;17.42;9.02;;;;;;;5.29;80.57;101362.16;4982830;28;20146;-90
2022/03/12 05:43:21;;;;;;;15.88;9.25;;;;;;;5.28;81.38;101357.88;4953159;28;20025;-91
2022/03/12 05:45:51;;;;;;;17.47;10.27;;;;;;;5.40;82.01;101373.16;4965991;28;20018;-91
2022/03/12 05:48:17;;;;;;;20.53;9.70;;;;;;;5.39;82.52;101376.84;4971715;28;20278;-91
2022/03/12 05:50:44;;;;;;;13.70;8.55;;;;;;;5.28;82.20;101360.53;4972288;28;20026;-91
2022/03/12 05:53:19;;;;;;;15.95;9.13;;;;;;;5.30;83.28;101368.28;4972348;28;20037;-91
2022/03/12 05:55:47;;;;;;;17.83;8.93;;;;;;;5.26;83.39;101367.91;5036444;23;20545;-91
2022/03/12 05:58:19;;;;;;;15.52;8.68;;;;;;;5.17;82.69;101368.34;5007682;28;20057;-91
2022/03/12 06:00:47;;;;;;;16.67;8.97;;;;;;;5.21;84.59;101380.16;4995124;28;20052;-90
2022/03/12 06:03:13;;;;;;;17.00;9.07;;;;;;;5.22;84.33;101387.94;5025530;28;20296;-92
2022/03/12 06:05:45;;;;;;;15.85;9.50;;;;;;;5.25;85.20;101384.03;4992563;28;20034;-91
2022/03/12 06:08:22;;;;;;;17.85;8.55;;;;;;;5.23;84.48;101386.91;5010029;28;20038;-90
2022/03/12 06:10:54;;;;;;;16.67;9.05;;;;;;;5.26;84.40;101391.00;4993263;28;20061;-91
2022/03/12 06:13:28;;;;;;;16.48;8.82;;;;;;;5.16;85.44;101380.78;5010378;28;20665;-90
2022/03/12 06:16:02;;;;;;;15.05;9.35;;;;;;;5.20;84.87;101383.88;5000189;28;20058;-89
2022/03/12 06:18:34;;;;;;;18.13;9.77;;;;;;;5.21;85.89;101381.00;4991386;28;20023;-90
2022/03/12 06:21:00;;;;;;;21.17;9.52;;;;;;;5.17;85.38;101379.75;5000980;28;20116;-89
2022/03/12 06:23:27;;;;;;;18.87;9.43;;;;;;;5.34;86.26;101397.91;5009265;28;20073;-86
2022/03/12 06:25:52;;;;;;;16.80;8.97;;;;;;;5.39;86.06;101404.22;5009571;28;20715;-85
2022/03/12 06:28:19;;;;;;;18.63;9.43;;;;;;;5.43;86.20;101407.31;5009811;28;20058;-86
2022/03/12 06:30:45;;;;;;;17.17;9.27;;;;;;;5.44;85.57;101411.59;4992570;28;20026;-86
2022/03/12 06:33:10;;;;;;;15.93;9.48;;;;;;;5.47;86.16;101411.19;5010010;28;20469;-88
2022/03/12 06:35:37;;;;;;;17.30;9.63;;;;;;;5.50;86.32;101405.44;5010385;28;20030;-88
2022/03/12 06:38:03;;;;;;;17.60;9.57;;;;;;;5.53;86.37;101404.22;5009440;28;20030;-88
2022/03/12 06:40:29;;;;;;;19.93;10.27;;;;;;;5.61;86.41;101412.78;5008637;28;20308;-85
2022/03/12 06:42:56;;;;;;;15.73;9.60;;;;;;;5.66;86.38;101406.00;5009776;28;20033;-85
2022/03/12 06:45:24;;;;;;;15.23;9.30;;;;;;;5.69;87.03;101401.09;5009102;28;20068;-85
2022/03/12 06:48:12;;;;;;;18.45;9.80;;;;;;;5.81;86.64;101417.19;5021849;28;20032;-85
2022/03/12 06:51:05;;;;;;;13.98;7.93;;;;;;;5.76;87.07;101401.84;4997445;28;20039;-86
2022/03/12 06:53:32;;;;;;;14.70;8.35;;;;;;;5.87;86.14;101420.84;5001338;28;20096;-85
2022/03/12 06:55:58;;;;;;;16.40;9.40;;;;;;;5.93;87.69;101424.50;5012027;28;20018;-88
2022/03/12 07:02:01;;;;;;;15.45;8.52;;;;;;;6.06;87.50;101424.47;5012530;28;20305;-86
2022/03/12 07:04:29;;;;;;;15.17;7.90;;;;;;;6.10;87.24;101420.34;4994093;28;20492;-85
2022/03/12 07:07:01;;;;;;;17.67;8.40;;;;;;;6.17;87.19;101425.63;5011459;28;20411;-86
2022/03/12 07:09:30;;;;;;;17.08;8.57;;;;;;;6.24;87.46;101434.41;5012855;28;20030;-84
2022/03/12 07:11:59;;;;;;;13.88;8.63;;;;;;;6.32;86.95;101434.13;5011075;28;20510;-85
2022/03/12 07:14:31;;;;;;;14.50;8.40;;;;;;;6.40;87.14;101434.94;5012326;28;20030;-85
2022/03/12 07:16:56;;;;;;;13.38;8.70;;;;;;;6.45;87.00;101440.44;5012385;28;20034;-85
2022/03/12 07:19:48;;;;;;;17.73;8.87;;;;;;;6.47;87.52;101436.50;5012583;28;20037;-84
2022/03/12 07:22:13;;;;;;;12.85;7.25;;;;;;;6.61;87.32;101442.56;4984485;28;20045;-85
2022/03/12 07:24:39;;;;;;;10.90;7.17;;;;;;;6.65;87.73;101456.25;5006285;28;20026;-85
2022/03/12 07:27:04;;;;;;;12.77;7.93;;;;;;;6.71;87.91;101449.25;5012429;28;20384;-85
2022/03/12 07:29:33;;;;;;;12.33;8.03;;;;;;;6.75;87.82;101459.28;5012758;28;20643;-85
2022/03/12 07:31:58;;;;;;;10.43;6.57;;;;;;;6.70;86.37;101453.78;5011793;28;20044;-88
2022/03/12 07:34:27;;;;;;;12.37;7.37;;;;;;;6.80;87.42;101464.75;5012630;28;20420;-87
2022/03/12 07:37:14;;;;;;;;;;;;;;;;;;;;;
2022/03/12 07:39:46;;;;;;;10.43;6.83;;;;;;;7.08;87.24;101468.84;4969663;28;20035;-85
2022/03/12 07:42:17;;;;;;;11.77;7.70;;;;;;;7.19;87.18;101466.47;4969843;28;20388;-86
2022/03/12 07:44:52;;;;;;;15.68;7.95;;;;;;;7.33;86.78;101483.97;4971191;28;20049;-87
2022/03/12 07:47:39;;;;;;;14.38;7.55;;;;;;;7.30;86.68;101468.44;4974955;28;20038;-85
2022/03/12 07:50:10;;;;;;;11.05;6.70;;;;;;;7.44;86.52;101482.44;5007788;28;20121;-84
2022/03/12 07:52:45;;;;;;;12.85;7.45;;;;;;;7.51;86.30;101474.38;5012027;28;20670;-84
2022/03/12 07:55:17;;;;;;;11.32;6.88;;;;;;;7.65;85.36;101481.22;5011403;28;20397;-84
2022/03/12 07:57:42;;;;;;;11.50;7.60;;;;;;;7.82;85.65;101496.63;5010928;28;20117;-84
2022/03/12 08:00:10;;;;;;;11.50;7.07;;;;;;;7.90;85.23;101496.31;5011739;28;20540;-84
2022/03/12 08:02:36;;;;;;;10.75;6.60;;;;;;;8.00;84.96;101501.13;5015674;28;20614;-84
2022/03/12 08:05:02;;;;;;;9.50;7.30;;;;;;;8.07;84.50;101501.88;5010024;28;20026;-84
2022/03/12 08:07:40;;;;;;;12.68;6.72;;;;;;;8.10;84.63;101490.75;5010758;28;20049;-85
2022/03/12 08:10:09;;;;;;;10.93;7.70;;;;;;;8.22;84.18;101498.00;5011815;28;20022;-85
2022/03/12 08:12:35;;;;;;;11.25;6.85;;;;;;;8.28;83.70;101513.13;4995683;28;20040;-83
2022/03/12 08:15:05;;;;;;;11.48;6.80;;;;;;;8.29;84.06;101510.22;5011290;28;20025;-83
2022/03/12 08:17:31;;;;;;;9.60;6.20;;;;;;;8.36;84.09;101520.00;5011162;28;20083;-83
2022/03/12 08:19:56;;;;;;;8.17;5.67;;;;;;;8.38;83.61;101518.72;5008326;28;20304;-84
2022/03/12 08:22:22;;;;;;;9.40;6.25;;;;;;;8.39;83.59;101509.69;5010410;28;20387;-84
2022/03/12 08:24:47;;;;;;;11.83;6.13;;;;;;;8.47;83.87;101513.88;5011475;28;20479;-84
2022/03/12 08:27:14;;;;;;;14.75;6.45;;;;;;;8.56;83.91;101515.25;5009165;28;20030;-84
2022/03/12 08:29:41;;;;;;;8.93;5.97;;;;;;;8.62;83.59;101518.84;5011164;28;20446;-84
2022/03/12 08:32:10;;;;;;;11.90;6.50;;;;;;;8.78;83.37;101534.25;5011337;28;20312;-86
2022/03/12 08:34:36;;;;;;;7.82;5.15;;;;;;;8.86;82.46;101522.41;4996872;28;20025;-85
2022/03/12 08:37:03;;;;;;;10.75;5.75;;;;;;;8.99;81.83;101528.56;5010668;28;20030;-88
2022/03/12 08:39:28;;;;;;;9.25;5.75;;;;;;;9.11;81.80;101533.94;5012940;28;20385;-88
2022/03/12 08:41:54;;;;;;;8.43;6.20;;;;;;;9.16;81.02;101534.09;5010558;28;20026;-89
2022/03/12 08:44:19;;;;;;;9.07;5.67;;;;;;;9.28;80.91;101534.09;5015389;28;20018;-89
2022/03/12 08:46:46;;;;;;;12.65;6.57;;;;;;;9.39;80.25;101543.97;5002295;28;20029;-90
2022/03/12 08:49:12;;;;;;;9.33;5.20;;;;;;;9.44;80.02;101544.09;5019189;28;20123;-89
2022/03/12 08:52:00;;;;;;;9.63;5.40;;;;;;;9.56;79.43;101541.44;5016173;28;20097;-91
2022/03/12 08:54:25;;;;;;;9.48;5.57;;;;;;;9.68;78.96;101549.44;5000505;28;20387;-88
2022/03/12 08:56:54;;;;;;;8.18;4.93;;;;;;;9.73;78.44;101536.16;5008935;28;21842;-86
2022/03/12 08:59:19;;;;;;;8.25;4.93;;;;;;;9.90;78.22;101546.16;5009068;28;20028;-85
2022/03/12 09:01:49;;;;;;;6.77;4.80;;;;;;;10.03;77.50;101553.13;5016957;28;20113;-86
2022/03/12 09:04:19;;;;;;;9.82;5.45;;;;;;;10.12;76.99;101551.72;5009871;28;20069;-87
2022/03/12 09:07:09;;;;;;;13.20;5.63;;;;;;;10.17;76.59;101543.75;5010611;28;20643;-86
2022/03/12 09:09:34;;;;;;;8.60;5.63;;;;;;;10.36;76.01;101539.06;5012685;28;20025;-90
2022/03/12 09:12:00;;;;;;;11.20;5.27;;;;;;;10.52;74.97;101545.53;5014276;28;20443;-85
2022/03/12 09:14:29;;;;;;;6.53;4.63;;;;;;;10.70;74.46;101549.06;4991495;28;20396;-86
2022/03/12 09:16:55;;;;;;;13.32;4.35;;;;;;;10.89;73.26;101538.94;5009745;28;20358;-85
2022/03/12 09:19:23;;;;;;;7.83;4.57;;;;;;;11.21;72.58;101560.69;5010966;28;20165;-83
2022/03/12 09:21:49;;;;;;;7.15;4.20;;;;;;;11.43;71.55;101553.75;5010484;28;20450;-85
2022/03/12 09:24:14;;;;;;;7.07;3.70;;;;;;;11.54;70.17;101554.72;5030986;23;20079;-85
2022/03/12 09:26:39;;;;;;;4.63;3.27;;;;;;;11.63;69.34;101564.78;5026700;28;20025;-85
2022/03/12 09:29:05;;;;;;;7.80;3.30;;;;;;;11.61;68.58;101561.53;5010482;28;20029;-85
2022/03/12 09:31:30;;;;;;;8.07;3.55;;;;;;;11.56;68.53;101553.38;5029665;28;20029;-84
2022/03/12 09:33:56;;;;;;;7.87;3.30;;;;;;;11.57;68.10;101559.59;5018298;28;20113;-84
2022/03/12 09:36:21;;;;;;;8.03;2.70;;;;;;;11.61;67.51;101558.84;5023070;28;20796;-85
2022/03/12 09:38:49;;;;;;;7.60;3.07;;;;;;;11.71;66.44;101565.41;5011082;28;20387;-86
2022/03/12 09:41:14;;;;;;;4.75;2.88;;;;;;;11.85;66.13;101560.50;5010217;28;20040;-86
2022/03/12 09:43:41;;;;;;;4.87;2.67;;;;;;;12.02;64.61;101568.53;5020526;28;20029;-85
2022/03/12 09:46:07;;;;;;;5.90;2.42;;;;;;;12.16;64.23;101567.09;5016085;28;20025;-86
2022/03/12 09:48:32;;;;;;;8.02;2.80;;;;;;;12.39;64.31;101557.16;5029900;28;20036;-86
2022/03/12 09:50:58;;;;;;;7.80;2.77;;;;;;;12.56;63.36;101544.44;5029833;28;20451;-85
2022/03/12 09:53:24;;;;;;;6.80;2.90;;;;;;;12.77;61.39;101552.72;5020592;28;20484;-85
2022/03/12 09:55:49;;;;;;;7.30;2.97;;;;;;;12.76;60.69;101553.78;5012844;28;20018;-85
2022/03/12 09:58:17;;;;;;;4.83;2.60;;;;;;;12.76;60.78;101547.56;5009032;28;20068;-85
2022/03/12 10:00:43;;;;;;;5.97;2.43;;;;;;;12.74;60.79;101555.91;5010097;28;20686;-85
2022/03/12 10:03:08;;;;;;;7.13;2.53;;;;;;;12.75;59.96;101549.47;5009553;28;20044;-85
2022/03/12 10:05:48;;;;;;;8.43;2.50;;;;;;;12.81;59.61;101563.75;5010145;28;20029;-86
2022/03/12 10:08:16;;;;;;;7.45;2.20;;;;;;;12.85;59.20;101554.91;5003592;28;20042;-86
2022/03/12 10:10:42;;;;;;;8.98;2.38;;;;;;;12.83;58.48;101554.34;5008847;28;20775;-86
2022/03/12 10:13:12;;;;;;;7.50;2.20;;;;;;;12.91;58.56;101577.28;5009639;28;20033;-87
2022/03/12 10:15:38;;;;;;;4.88;2.10;;;;;;;12.72;58.45;101555.34;5009654;28;20034;-87
2022/03/12 10:18:03;;;;;;;6.40;1.80;;;;;;;12.75;58.27;101562.06;4996976;28;20484;-87
2022/03/12 10:20:33;;;;;;;6.35;1.90;;;;;;;12.90;58.51;101564.09;5018900;28;20063;-87
2022/03/12 10:23:02;;;;;;;8.03;2.40;;;;;;;12.91;58.16;101561.16;5009185;28;20034;-88
2022/03/12 10:25:28;;;;;;;8.27;2.07;;;;;;;12.90;58.64;101574.88;4997504;28;20297;-85
2022/03/12 10:27:53;;;;;;;8.07;2.20;;;;;;;13.00;57.72;101569.56;5009136;28;20492;-86
2022/03/12 10:30:19;;;;;;;10.60;2.43;;;;;;;13.12;57.57;101570.22;5013716;28;20033;-87
2022/03/12 10:32:48;;;;;;;8.02;2.22;;;;;;;13.29;57.53;101569.28;5012035;28;20025;-86
2022/03/12 10:35:23;;;;;;;3.87;1.77;;;;;;;13.23;56.47;101570.28;5018903;28;20108;-88
2022/03/12 10:38:33;;;;;;;7.77;2.00;;;;;;;13.21;57.06;101569.75;5014294;28;20292;-89
2022/03/12 10:41:37;;;;;;;7.22;2.17;;;;;;;13.27;57.51;101568.72;4984261;28;20133;-87
2022/03/12 10:45:03;;;;;;;8.63;2.17;;;;;;;13.43;57.18;101569.66;5030633;23;20535;-87
2022/03/12 10:52:30;;;;;;;10.73;1.90;;;;;;;13.73;56.00;101566.34;5295950;23;20064;-84
2022/03/12 10:54:56;;;;;;;11.80;2.45;;;;;;;13.79;55.70;101580.66;5015361;28;20041;-86
2022/03/12 10:57:31;;;;;;;5.63;1.92;;;;;;;13.84;55.70;101569.09;5012745;28;20037;-86
2022/03/12 11:00:17;;;;;;;6.55;2.00;;;;;;;13.91;55.51;101572.34;5013374;28;20030;-85
2022/03/12 11:03:00;;;;;;;6.70;1.93;;;;;;;13.83;54.08;101575.56;4995605;28;20031;-84
2022/03/12 11:05:35;;;;;;;8.63;1.87;;;;;;;13.82;54.45;101563.97;4997350;28;20273;-86
2022/03/12 11:08:10;;;;;;;5.00;2.22;;;;;;;13.68;53.97;101577.09;4997160;28;20029;-86
2022/03/12 11:14:43;;;;;;;5.25;2.00;;;;;;;13.62;54.43;101570.84;4944663;28;20078;-88
2022/03/12 11:17:44;;;;;;;4.93;1.90;;;;;;;13.66;53.77;101573.88;4875872;29;20060;-87
2022/03/12 11:24:35;;;;;;;7.30;1.70;;;;;;;13.83;54.15;101572.88;5023485;23;20061;-86
2022/03/12 11:27:01;;;;;;;6.35;1.55;;;;;;;13.92;52.10;101573.97;5017724;28;20096;-86
2022/03/12 11:29:38;;;;;;;6.47;1.77;;;;;;;14.01;52.65;101580.50;5012970;28;20014;-87
2022/03/12 11:32:09;;;;;;;6.60;1.65;;;;;;;14.11;52.07;101565.44;5025820;28;20029;-87
2022/03/12 11:34:40;;;;;;;5.28;1.75;;;;;;;14.30;51.10;101582.75;5025997;28;20034;-87
2022/03/12 11:37:18;;;;;;;5.03;1.50;;;;;;;14.42;49.85;101587.94;5032072;28;20033;-86
2022/03/12 11:39:52;;;;;;;7.05;1.40;;;;;;;14.42;50.50;101571.75;5031472;28;20029;-87
2022/03/12 11:42:20;;;;;;;4.78;1.23;;;;;;;14.37;48.64;101571.72;5032048;28;20491;-87
2022/03/12 11:44:54;;;;;;;4.72;1.40;;;;;;;14.51;48.97;101569.34;5031987;28;20039;-87
2022/03/12 11:47:24;;;;;;;6.00;1.40;;;;;;;14.64;48.31;101574.22;5031665;28;20033;-86
2022/03/12 11:49:51;;;;;;;5.67;1.30;;;;;;;14.59;48.27;101576.94;5018383;28;20116;-87
2022/03/12 11:52:26;;;;;;;5.53;1.60;;;;;;;14.60;49.36;101570.47;5038323;23;20652;-86
2022/03/12 11:55:21;;;;;;;;;;;;;;;;;;;;;
2022/03/12 11:57:52;;;;;;;3.33;1.20;;;;;;;14.72;47.54;101564.03;5012463;28;20042;-86
2022/03/12 12:00:29;;;;;;;4.55;1.42;;;;;;;14.79;48.04;101561.88;5028183;28;20025;-86
2022/03/12 12:03:07;;;;;;;6.32;1.30;;;;;;;14.81;47.72;101578.59;5021793;28;20025;-86
2022/03/12 12:05:33;;;;;;;6.25;1.17;;;;;;;14.95;47.58;101563.53;5011882;28;20037;-86
2022/03/12 12:07:59;;;;;;;4.03;1.35;;;;;;;14.91;46.88;101546.25;5010937;28;20021;-85
2022/03/12 12:10:34;;;;;;;6.07;1.33;;;;;;;14.85;47.65;101547.31;4987688;28;20084;-86
2022/03/12 12:13:02;;;;;;;7.32;1.65;;;;;;;14.94;47.49;101555.66;5011742;28;20069;-87
2022/03/12 12:15:34;;;;;;;3.90;1.42;;;;;;;15.04;47.19;101549.47;5011103;28;20022;-86
2022/03/12 12:18:02;;;;;;;4.25;1.45;;;;;;;15.08;47.70;101550.56;5011329;28;20030;-87
2022/03/12 12:20:41;;;;;;;6.63;1.45;;;;;;;15.21;47.19;101530.31;4999817;28;20045;-85
2022/03/12 12:23:26;;;;;;;6.90;1.80;;;;;;;15.49;47.37;101537.00;5011154;28;20034;-87
2022/03/12 12:26:05;;;;;;;6.40;1.40;;;;;;;15.40;46.01;101525.97;5003479;28;20300;-87
2022/03/12 12:29:01;;;;;;;4.78;1.50;;;;;;;15.34;45.54;101526.25;5010887;28;20054;-86
2022/03/12 12:39:41;;;;;;;7.20;1.27;;;;;;;14.96;45.55;101538.16;5030248;23;20046;-88